Terminal Aerodrome Forecast
Issued by NWS Melbourne, FL

Home | Current Version | Previous Version | Text Only | Print | Product List | Glossary On
Versions: 1 2 3 4 5 6 7 8 9 10 11 12 13 14 15
000
FTUS42 KMLB 032004 AAA
TAFDAB
TAF AMD
KDAB 032004Z 0320/0418 22015G23KT P6SM SCT020 BKN080
     FM032300 20005KT P6SM VCSH SCT010 BKN030 OVC120
     FM041400 22008KT P6SM SCT030 SCT100 OVC250=

USA.gov is the U.S. government's official web portal to all federal, state and local government web resources and services.